sensor_id;sensor_type;location;lat;lon;timestamp;P1;durP1;ratioP1;P2;durP2;ratioP2
52508;SDS011;38420;53.150;6.370;2022-10-13T00:01:10;33.95;;;17.55;;
52508;SDS011;38420;53.150;6.370;2022-10-13T00:06:05;29.80;;;14.93;;
52508;SDS011;38420;53.150;6.370;2022-10-13T00:08:32;28.23;;;15.45;;
52508;SDS011;38420;53.150;6.370;2022-10-13T00:10:58;26.42;;;15.88;;
52508;SDS011;38420;53.150;6.370;2022-10-13T00:13:24;29.88;;;15.13;;
52508;SDS011;38420;53.150;6.370;2022-10-13T00:15:50;27.10;;;15.85;;
52508;SDS011;38420;53.150;6.370;2022-10-13T00:18:16;27.85;;;15.95;;
52508;SDS011;38420;53.150;6.370;2022-10-13T00:20:46;29.27;;;15.95;;
52508;SDS011;38420;53.150;6.370;2022-10-13T00:23:13;27.58;;;15.80;;
52508;SDS011;38420;53.150;6.370;2022-10-13T00:25:41;33.78;;;16.75;;
52508;SDS011;38420;53.150;6.370;2022-10-13T00:28:09;36.70;;;17.63;;
52508;SDS011;38420;53.150;6.370;2022-10-13T00:30:35;35.08;;;16.33;;
52508;SDS011;38420;53.150;6.370;2022-10-13T00:33:01;31.50;;;17.73;;
52508;SDS011;38420;53.150;6.370;2022-10-13T00:35:27;26.27;;;16.40;;
52508;SDS011;38420;53.150;6.370;2022-10-13T00:37:52;31.52;;;17.15;;
52508;SDS011;38420;53.150;6.370;2022-10-13T00:40:18;29.83;;;16.40;;
52508;SDS011;38420;53.150;6.370;2022-10-13T00:42:44;31.80;;;16.15;;
52508;SDS011;38420;53.150;6.370;2022-10-13T00:45:28;31.23;;;16.02;;
52508;SDS011;38420;53.150;6.370;2022-10-13T00:47:57;28.63;;;16.63;;
52508;SDS011;38420;53.150;6.370;2022-10-13T00:50:30;32.13;;;17.85;;
52508;SDS011;38420;53.150;6.370;2022-10-13T00:52:58;40.15;;;18.95;;
52508;SDS011;38420;53.150;6.370;2022-10-13T00:55:26;34.20;;;17.80;;
52508;SDS011;38420;53.150;6.370;2022-10-13T00:57:56;27.55;;;16.45;;
52508;SDS011;38420;53.150;6.370;2022-10-13T01:00:25;36.00;;;18.27;;
52508;SDS011;38420;53.150;6.370;2022-10-13T01:02:52;31.13;;;17.83;;
52508;SDS011;38420;53.150;6.370;2022-10-13T01:05:18;38.47;;;17.88;;
52508;SDS011;38420;53.150;6.370;2022-10-13T01:07:45;28.45;;;16.67;;
52508;SDS011;38420;53.150;6.370;2022-10-13T01:10:14;34.53;;;18.25;;
52508;SDS011;38420;53.150;6.370;2022-10-13T01:12:51;38.85;;;18.65;;
52508;SDS011;38420;53.150;6.370;2022-10-13T01:16:11;34.65;;;18.20;;
52508;SDS011;38420;53.150;6.370;2022-10-13T01:21:11;31.42;;;18.70;;
52508;SDS011;38420;53.150;6.370;2022-10-13T01:32:10;35.17;;;18.10;;
52508;SDS011;38420;53.150;6.370;2022-10-13T01:35:08;36.33;;;17.60;;
52508;SDS011;38420;53.150;6.370;2022-10-13T01:43:32;31.88;;;18.10;;
52508;SDS011;38420;53.150;6.370;2022-10-13T01:46:09;34.38;;;17.35;;
52508;SDS011;38420;53.150;6.370;2022-10-13T01:51:11;33.13;;;17.70;;
52508;SDS011;38420;53.150;6.370;2022-10-13T01:53:40;38.72;;;17.77;;
52508;SDS011;38420;53.150;6.370;2022-10-13T01:56:07;33.55;;;18.13;;
52508;SDS011;38420;53.150;6.370;2022-10-13T01:58:33;34.78;;;18.60;;
52508;SDS011;38420;53.150;6.370;2022-10-13T02:06:43;27.38;;;16.27;;
52508;SDS011;38420;53.150;6.370;2022-10-13T02:09:11;34.35;;;18.45;;
52508;SDS011;38420;53.150;6.370;2022-10-13T02:11:54;34.17;;;18.98;;
52508;SDS011;38420;53.150;6.370;2022-10-13T02:14:29;32.42;;;18.35;;
52508;SDS011;38420;53.150;6.370;2022-10-13T02:16:59;34.25;;;17.35;;
52508;SDS011;38420;53.150;6.370;2022-10-13T02:19:27;29.38;;;18.27;;
52508;SDS011;38420;53.150;6.370;2022-10-13T02:21:54;35.75;;;19.77;;
52508;SDS011;38420;53.150;6.370;2022-10-13T02:24:21;32.33;;;18.98;;
52508;SDS011;38420;53.150;6.370;2022-10-13T02:26:46;32.90;;;18.58;;
52508;SDS011;38420;53.150;6.370;2022-10-13T02:29:13;32.78;;;18.20;;
52508;SDS011;38420;53.150;6.370;2022-10-13T02:31:40;40.80;;;18.98;;
52508;SDS011;38420;53.150;6.370;2022-10-13T02:34:08;32.60;;;18.38;;
52508;SDS011;38420;53.150;6.370;2022-10-13T02:36:34;34.78;;;18.40;;
52508;SDS011;38420;53.150;6.370;2022-10-13T02:39:02;33.22;;;18.40;;
52508;SDS011;38420;53.150;6.370;2022-10-13T02:41:28;31.38;;;18.50;;
52508;SDS011;38420;53.150;6.370;2022-10-13T02:43:54;34.17;;;18.30;;
52508;SDS011;38420;53.150;6.370;2022-10-13T02:46:20;34.30;;;19.52;;
52508;SDS011;38420;53.150;6.370;2022-10-13T02:48:46;32.58;;;18.25;;
52508;SDS011;38420;53.150;6.370;2022-10-13T02:51:12;35.65;;;18.55;;
52508;SDS011;38420;53.150;6.370;2022-10-13T02:53:37;36.47;;;19.48;;
52508;SDS011;38420;53.150;6.370;2022-10-13T02:56:04;34.40;;;19.63;;
52508;SDS011;38420;53.150;6.370;2022-10-13T02:58:30;34.38;;;18.70;;
52508;SDS011;38420;53.150;6.370;2022-10-13T03:01:04;36.33;;;19.45;;
52508;SDS011;38420;53.150;6.370;2022-10-13T03:03:38;37.60;;;19.20;;
52508;SDS011;38420;53.150;6.370;2022-10-13T03:06:04;33.35;;;18.88;;
52508;SDS011;38420;53.150;6.370;2022-10-13T03:08:31;35.65;;;18.42;;
52508;SDS011;38420;53.150;6.370;2022-10-13T03:10:58;34.28;;;19.63;;
52508;SDS011;38420;53.150;6.370;2022-10-13T03:13:23;34.78;;;19.13;;
52508;SDS011;38420;53.150;6.370;2022-10-13T03:15:49;41.60;;;20.90;;
52508;SDS011;38420;53.150;6.370;2022-10-13T03:18:14;39.15;;;18.95;;
52508;SDS011;38420;53.150;6.370;2022-10-13T03:20:40;37.65;;;21.05;;
52508;SDS011;38420;53.150;6.370;2022-10-13T03:23:06;35.50;;;21.00;;
52508;SDS011;38420;53.150;6.370;2022-10-13T03:25:32;35.67;;;20.98;;
52508;SDS011;38420;53.150;6.370;2022-10-13T03:27:58;38.15;;;20.80;;
52508;SDS011;38420;53.150;6.370;2022-10-13T03:30:24;32.72;;;18.98;;
52508;SDS011;38420;53.150;6.370;2022-10-13T03:32:50;40.80;;;22.05;;
52508;SDS011;38420;53.150;6.370;2022-10-13T03:35:16;36.50;;;19.95;;
52508;SDS011;38420;53.150;6.370;2022-10-13T03:37:41;34.60;;;21.45;;
52508;SDS011;38420;53.150;6.370;2022-10-13T03:40:07;41.22;;;21.10;;
52508;SDS011;38420;53.150;6.370;2022-10-13T03:42:34;42.33;;;21.30;;
52508;SDS011;38420;53.150;6.370;2022-10-13T03:45:01;39.65;;;20.65;;
52508;SDS011;38420;53.150;6.370;2022-10-13T03:47:27;39.03;;;21.80;;
52508;SDS011;38420;53.150;6.370;2022-10-13T03:49:53;35.97;;;20.92;;
52508;SDS011;38420;53.150;6.370;2022-10-13T03:52:19;35.40;;;20.67;;
52508;SDS011;38420;53.150;6.370;2022-10-13T03:54:46;35.05;;;21.58;;
52508;SDS011;38420;53.150;6.370;2022-10-13T03:57:11;37.70;;;21.85;;
52508;SDS011;38420;53.150;6.370;2022-10-13T03:59:40;41.30;;;23.60;;
52508;SDS011;38420;53.150;6.370;2022-10-13T04:02:06;38.92;;;21.42;;
52508;SDS011;38420;53.150;6.370;2022-10-13T04:04:32;40.40;;;22.92;;
52508;SDS011;38420;53.150;6.370;2022-10-13T04:06:59;38.15;;;23.05;;
52508;SDS011;38420;53.150;6.370;2022-10-13T04:09:25;49.47;;;24.80;;
52508;SDS011;38420;53.150;6.370;2022-10-13T04:11:51;41.67;;;23.25;;
52508;SDS011;38420;53.150;6.370;2022-10-13T04:14:17;42.70;;;23.05;;
52508;SDS011;38420;53.150;6.370;2022-10-13T04:16:42;42.38;;;23.73;;
52508;SDS011;38420;53.150;6.370;2022-10-13T04:19:12;42.13;;;23.48;;
52508;SDS011;38420;53.150;6.370;2022-10-13T04:21:39;42.47;;;24.10;;
52508;SDS011;38420;53.150;6.370;2022-10-13T04:24:05;44.30;;;25.20;;
52508;SDS011;38420;53.150;6.370;2022-10-13T04:26:32;46.75;;;25.15;;
52508;SDS011;38420;53.150;6.370;2022-10-13T04:29:00;44.60;;;25.45;;
52508;SDS011;38420;53.150;6.370;2022-10-13T04:31:28;38.40;;;24.02;;
52508;SDS011;38420;53.150;6.370;2022-10-13T04:33:54;53.92;;;26.02;;
52508;SDS011;38420;53.150;6.370;2022-10-13T04:36:20;47.17;;;25.65;;
52508;SDS011;38420;53.150;6.370;2022-10-13T04:38:46;50.67;;;26.70;;
52508;SDS011;38420;53.150;6.370;2022-10-13T04:41:12;43.65;;;24.77;;
52508;SDS011;38420;53.150;6.370;2022-10-13T04:43:39;42.83;;;25.30;;
52508;SDS011;38420;53.150;6.370;2022-10-13T04:46:07;49.60;;;26.77;;
52508;SDS011;38420;53.150;6.370;2022-10-13T04:48:40;55.50;;;27.27;;
52508;SDS011;38420;53.150;6.370;2022-10-13T04:51:07;54.42;;;29.15;;
52508;SDS011;38420;53.150;6.370;2022-10-13T04:53:35;46.47;;;26.75;;
52508;SDS011;38420;53.150;6.370;2022-10-13T04:56:02;54.95;;;28.08;;
52508;SDS011;38420;53.150;6.370;2022-10-13T04:58:29;51.05;;;28.23;;
52508;SDS011;38420;53.150;6.370;2022-10-13T05:00:55;45.80;;;27.38;;
52508;SDS011;38420;53.150;6.370;2022-10-13T05:03:21;57.13;;;30.98;;
52508;SDS011;38420;53.150;6.370;2022-10-13T05:05:47;47.20;;;26.50;;
52508;SDS011;38420;53.150;6.370;2022-10-13T05:08:13;52.60;;;28.73;;
52508;SDS011;38420;53.150;6.370;2022-10-13T05:10:39;54.92;;;28.77;;
52508;SDS011;38420;53.150;6.370;2022-10-13T05:13:04;53.90;;;28.88;;
52508;SDS011;38420;53.150;6.370;2022-10-13T05:15:30;51.75;;;30.45;;
52508;SDS011;38420;53.150;6.370;2022-10-13T05:17:57;50.58;;;29.52;;
52508;SDS011;38420;53.150;6.370;2022-10-13T05:20:23;53.67;;;31.08;;
52508;SDS011;38420;53.150;6.370;2022-10-13T05:22:49;53.53;;;31.00;;
52508;SDS011;38420;53.150;6.370;2022-10-13T05:25:14;55.15;;;30.23;;
52508;SDS011;38420;53.150;6.370;2022-10-13T05:27:40;64.70;;;33.92;;
52508;SDS011;38420;53.150;6.370;2022-10-13T05:30:06;66.50;;;32.80;;
52508;SDS011;38420;53.150;6.370;2022-10-13T05:32:33;52.47;;;30.08;;
52508;SDS011;38420;53.150;6.370;2022-10-13T05:34:59;58.95;;;32.30;;
52508;SDS011;38420;53.150;6.370;2022-10-13T05:37:25;59.58;;;32.47;;
52508;SDS011;38420;53.150;6.370;2022-10-13T05:39:51;58.50;;;32.42;;
52508;SDS011;38420;53.150;6.370;2022-10-13T05:42:16;56.80;;;31.42;;
52508;SDS011;38420;53.150;6.370;2022-10-13T05:44:42;60.30;;;32.80;;
52508;SDS011;38420;53.150;6.370;2022-10-13T05:47:08;71.55;;;34.25;;
52508;SDS011;38420;53.150;6.370;2022-10-13T05:49:33;57.88;;;32.00;;
52508;SDS011;38420;53.150;6.370;2022-10-13T05:52:04;63.55;;;33.25;;
52508;SDS011;38420;53.150;6.370;2022-10-13T05:54:34;67.38;;;34.95;;
52508;SDS011;38420;53.150;6.370;2022-10-13T05:59:54;67.70;;;36.10;;
52508;SDS011;38420;53.150;6.370;2022-10-13T06:02:23;69.50;;;35.72;;
52508;SDS011;38420;53.150;6.370;2022-10-13T06:04:52;65.50;;;35.78;;
52508;SDS011;38420;53.150;6.370;2022-10-13T06:07:20;72.78;;;38.28;;
52508;SDS011;38420;53.150;6.370;2022-10-13T06:09:46;71.40;;;38.97;;
52508;SDS011;38420;53.150;6.370;2022-10-13T06:12:12;68.07;;;36.55;;
52508;SDS011;38420;53.150;6.370;2022-10-13T06:14:38;70.90;;;37.72;;
52508;SDS011;38420;53.150;6.370;2022-10-13T06:17:04;73.28;;;39.47;;
52508;SDS011;38420;53.150;6.370;2022-10-13T06:19:29;80.20;;;39.88;;
52508;SDS011;38420;53.150;6.370;2022-10-13T06:21:55;73.05;;;38.97;;
52508;SDS011;38420;53.150;6.370;2022-10-13T06:24:21;69.60;;;39.13;;
52508;SDS011;38420;53.150;6.370;2022-10-13T06:26:46;70.20;;;38.00;;
52508;SDS011;38420;53.150;6.370;2022-10-13T06:29:12;68.35;;;36.45;;
52508;SDS011;38420;53.150;6.370;2022-10-13T06:31:37;67.05;;;37.60;;
52508;SDS011;38420;53.150;6.370;2022-10-13T06:34:03;84.53;;;39.70;;
52508;SDS011;38420;53.150;6.370;2022-10-13T06:36:28;77.32;;;39.47;;
52508;SDS011;38420;53.150;6.370;2022-10-13T06:38:54;71.53;;;36.92;;
52508;SDS011;38420;53.150;6.370;2022-10-13T06:41:20;69.95;;;38.22;;
52508;SDS011;38420;53.150;6.370;2022-10-13T06:43:45;66.55;;;36.25;;
52508;SDS011;38420;53.150;6.370;2022-10-13T06:46:11;84.47;;;40.15;;
52508;SDS011;38420;53.150;6.370;2022-10-13T06:48:37;68.13;;;37.33;;
52508;SDS011;38420;53.150;6.370;2022-10-13T06:51:04;66.47;;;35.35;;
52508;SDS011;38420;53.150;6.370;2022-10-13T06:53:31;77.63;;;38.03;;
52508;SDS011;38420;53.150;6.370;2022-10-13T06:55:57;69.30;;;36.67;;
52508;SDS011;38420;53.150;6.370;2022-10-13T06:58:24;72.95;;;36.20;;
52508;SDS011;38420;53.150;6.370;2022-10-13T07:00:50;68.30;;;38.03;;
52508;SDS011;38420;53.150;6.370;2022-10-13T07:03:16;71.03;;;38.00;;
52508;SDS011;38420;53.150;6.370;2022-10-13T07:05:42;70.80;;;38.10;;
52508;SDS011;38420;53.150;6.370;2022-10-13T07:08:07;75.60;;;38.90;;
52508;SDS011;38420;53.150;6.370;2022-10-13T07:10:33;69.85;;;38.25;;
52508;SDS011;38420;53.150;6.370;2022-10-13T07:12:58;75.15;;;38.13;;
52508;SDS011;38420;53.150;6.370;2022-10-13T07:15:24;79.35;;;39.47;;
52508;SDS011;38420;53.150;6.370;2022-10-13T07:17:50;68.82;;;37.70;;
52508;SDS011;38420;53.150;6.370;2022-10-13T07:20:18;70.00;;;38.30;;
52508;SDS011;38420;53.150;6.370;2022-10-13T07:22:45;71.50;;;40.50;;
52508;SDS011;38420;53.150;6.370;2022-10-13T07:25:11;69.05;;;37.92;;
52508;SDS011;38420;53.150;6.370;2022-10-13T07:27:37;69.03;;;38.83;;
52508;SDS011;38420;53.150;6.370;2022-10-13T07:30:05;73.18;;;38.42;;
52508;SDS011;38420;53.150;6.370;2022-10-13T07:32:31;65.95;;;38.40;;
52508;SDS011;38420;53.150;6.370;2022-10-13T07:34:57;66.70;;;38.30;;
52508;SDS011;38420;53.150;6.370;2022-10-13T07:37:22;66.65;;;36.53;;
52508;SDS011;38420;53.150;6.370;2022-10-13T07:39:50;64.70;;;37.80;;
52508;SDS011;38420;53.150;6.370;2022-10-13T07:42:16;62.35;;;36.63;;
52508;SDS011;38420;53.150;6.370;2022-10-13T07:44:42;71.85;;;38.55;;
52508;SDS011;38420;53.150;6.370;2022-10-13T07:47:08;64.43;;;38.10;;
52508;SDS011;38420;53.150;6.370;2022-10-13T07:49:33;68.03;;;37.28;;
52508;SDS011;38420;53.150;6.370;2022-10-13T07:51:59;67.38;;;37.53;;
52508;SDS011;38420;53.150;6.370;2022-10-13T07:54:25;64.90;;;36.55;;
52508;SDS011;38420;53.150;6.370;2022-10-13T07:56:51;70.18;;;37.03;;
52508;SDS011;38420;53.150;6.370;2022-10-13T07:59:18;65.13;;;38.08;;
52508;SDS011;38420;53.150;6.370;2022-10-13T08:01:44;70.43;;;36.60;;
52508;SDS011;38420;53.150;6.370;2022-10-13T08:04:09;63.08;;;35.72;;
52508;SDS011;38420;53.150;6.370;2022-10-13T08:06:35;62.15;;;35.53;;
52508;SDS011;38420;53.150;6.370;2022-10-13T08:09:01;64.15;;;33.88;;
52508;SDS011;38420;53.150;6.370;2022-10-13T08:11:28;57.30;;;32.58;;
52508;SDS011;38420;53.150;6.370;2022-10-13T08:13:54;57.95;;;34.30;;
52508;SDS011;38420;53.150;6.370;2022-10-13T08:16:24;54.60;;;31.25;;
52508;SDS011;38420;53.150;6.370;2022-10-13T08:18:51;58.60;;;33.33;;
52508;SDS011;38420;53.150;6.370;2022-10-13T08:21:18;59.10;;;33.95;;
52508;SDS011;38420;53.150;6.370;2022-10-13T08:23:46;58.85;;;34.08;;
52508;SDS011;38420;53.150;6.370;2022-10-13T08:26:19;62.10;;;34.22;;
52508;SDS011;38420;53.150;6.370;2022-10-13T08:28:50;57.00;;;33.13;;
52508;SDS011;38420;53.150;6.370;2022-10-13T08:31:17;55.50;;;34.28;;
52508;SDS011;38420;53.150;6.370;2022-10-13T08:33:43;61.88;;;36.95;;
52508;SDS011;38420;53.150;6.370;2022-10-13T08:36:11;59.38;;;34.60;;
52508;SDS011;38420;53.150;6.370;2022-10-13T08:38:38;63.42;;;35.75;;
52508;SDS011;38420;53.150;6.370;2022-10-13T08:41:11;61.72;;;36.80;;
52508;SDS011;38420;53.150;6.370;2022-10-13T08:43:40;61.65;;;34.42;;
52508;SDS011;38420;53.150;6.370;2022-10-13T08:46:09;63.83;;;36.00;;
52508;SDS011;38420;53.150;6.370;2022-10-13T08:48:36;63.38;;;36.25;;
52508;SDS011;38420;53.150;6.370;2022-10-13T08:51:05;66.90;;;36.10;;
52508;SDS011;38420;53.150;6.370;2022-10-13T08:53:32;61.88;;;35.20;;
52508;SDS011;38420;53.150;6.370;2022-10-13T08:56:03;60.00;;;35.60;;
52508;SDS011;38420;53.150;6.370;2022-10-13T08:58:33;66.70;;;36.85;;
52508;SDS011;38420;53.150;6.370;2022-10-13T09:01:10;61.67;;;35.83;;
52508;SDS011;38420;53.150;6.370;2022-10-13T09:09:00;60.85;;;36.47;;
52508;SDS011;38420;53.150;6.370;2022-10-13T09:11:34;62.83;;;36.42;;
52508;SDS011;38420;53.150;6.370;2022-10-13T09:14:04;65.75;;;36.15;;
52508;SDS011;38420;53.150;6.370;2022-10-13T09:16:33;68.05;;;37.63;;
52508;SDS011;38420;53.150;6.370;2022-10-13T09:25:19;68.38;;;36.33;;
52508;SDS011;38420;53.150;6.370;2022-10-13T09:27:50;62.63;;;37.00;;
52508;SDS011;38420;53.150;6.370;2022-10-13T09:30:39;66.97;;;36.92;;
52508;SDS011;38420;53.150;6.370;2022-10-13T09:35:34;65.53;;;37.50;;
52508;SDS011;38420;53.150;6.370;2022-10-13T09:38:04;62.92;;;35.78;;
52508;SDS011;38420;53.150;6.370;2022-10-13T09:40:31;69.55;;;36.85;;
52508;SDS011;38420;53.150;6.370;2022-10-13T09:42:59;60.38;;;34.92;;
52508;SDS011;38420;53.150;6.370;2022-10-13T09:45:26;59.22;;;33.80;;
52508;SDS011;38420;53.150;6.370;2022-10-13T09:47:58;62.17;;;35.28;;
52508;SDS011;38420;53.150;6.370;2022-10-13T09:50:30;58.35;;;33.67;;
52508;SDS011;38420;53.150;6.370;2022-10-13T09:55:45;63.20;;;34.38;;
52508;SDS011;38420;53.150;6.370;2022-10-13T10:00:45;59.03;;;32.15;;
52508;SDS011;38420;53.150;6.370;2022-10-13T10:03:20;56.40;;;32.97;;
52508;SDS011;38420;53.150;6.370;2022-10-13T10:05:54;56.05;;;32.90;;
52508;SDS011;38420;53.150;6.370;2022-10-13T10:11:02;58.38;;;30.90;;
52508;SDS011;38420;53.150;6.370;2022-10-13T10:13:35;60.85;;;33.10;;
52508;SDS011;38420;53.150;6.370;2022-10-13T10:16:43;61.97;;;34.00;;
52508;SDS011;38420;53.150;6.370;2022-10-13T10:19:07;56.13;;;31.67;;
52508;SDS011;38420;53.150;6.370;2022-10-13T10:22:05;56.28;;;33.70;;
52508;SDS011;38420;53.150;6.370;2022-10-13T10:27:18;56.50;;;31.60;;
52508;SDS011;38420;53.150;6.370;2022-10-13T10:29:52;56.38;;;33.83;;
52508;SDS011;38420;53.150;6.370;2022-10-13T10:35:19;51.30;;;30.35;;
52508;SDS011;38420;53.150;6.370;2022-10-13T10:38:19;53.35;;;32.15;;
52508;SDS011;38420;53.150;6.370;2022-10-13T10:41:25;55.72;;;33.70;;
52508;SDS011;38420;53.150;6.370;2022-10-13T10:44:19;56.53;;;32.88;;
52508;SDS011;38420;53.150;6.370;2022-10-13T10:46:59;52.35;;;31.77;;
52508;SDS011;38420;53.150;6.370;2022-10-13T10:49:35;51.20;;;30.65;;
52508;SDS011;38420;53.150;6.370;2022-10-13T10:52:10;55.08;;;32.35;;
52508;SDS011;38420;53.150;6.370;2022-10-13T10:54:52;55.55;;;32.08;;
52508;SDS011;38420;53.150;6.370;2022-10-13T10:57:45;53.03;;;31.50;;
52508;SDS011;38420;53.150;6.370;2022-10-13T11:00:31;50.15;;;30.10;;
52508;SDS011;38420;53.150;6.370;2022-10-13T11:06:04;53.05;;;31.00;;
52508;SDS011;38420;53.150;6.370;2022-10-13T11:13:50;55.60;;;31.75;;
52508;SDS011;38420;53.150;6.370;2022-10-13T11:16:29;46.83;;;30.10;;
52508;SDS011;38420;53.150;6.370;2022-10-13T11:19:45;50.20;;;29.23;;
52508;SDS011;38420;53.150;6.370;2022-10-13T11:35:11;46.20;;;27.90;;
52508;SDS011;38420;53.150;6.370;2022-10-13T11:59:33;49.08;;;31.20;;
52508;SDS011;38420;53.150;6.370;2022-10-13T12:04:40;43.15;;;29.10;;
52508;SDS011;38420;53.150;6.370;2022-10-13T12:07:10;45.28;;;29.77;;
52508;SDS011;38420;53.150;6.370;2022-10-13T12:14:56;37.38;;;24.65;;
52508;SDS011;38420;53.150;6.370;2022-10-13T12:19:53;44.42;;;28.50;;
52508;SDS011;38420;53.150;6.370;2022-10-13T12:22:20;43.58;;;28.58;;
52508;SDS011;38420;53.150;6.370;2022-10-13T12:24:59;44.83;;;27.98;;
52508;SDS011;38420;53.150;6.370;2022-10-13T12:27:26;42.55;;;27.25;;
52508;SDS011;38420;53.150;6.370;2022-10-13T12:29:53;45.65;;;28.33;;
52508;SDS011;38420;53.150;6.370;2022-10-13T12:32:21;37.17;;;26.38;;
52508;SDS011;38420;53.150;6.370;2022-10-13T12:34:51;39.42;;;25.88;;
52508;SDS011;38420;53.150;6.370;2022-10-13T12:37:24;36.58;;;25.83;;
52508;SDS011;38420;53.150;6.370;2022-10-13T12:39:51;41.63;;;26.85;;
52508;SDS011;38420;53.150;6.370;2022-10-13T12:42:17;40.05;;;28.25;;
52508;SDS011;38420;53.150;6.370;2022-10-13T12:44:43;45.80;;;29.40;;
52508;SDS011;38420;53.150;6.370;2022-10-13T12:55:21;39.45;;;26.00;;
52508;SDS011;38420;53.150;6.370;2022-10-13T12:57:49;39.15;;;26.17;;
52508;SDS011;38420;53.150;6.370;2022-10-13T13:02:50;40.00;;;26.33;;
52508;SDS011;38420;53.150;6.370;2022-10-13T13:07:58;49.33;;;34.22;;
52508;SDS011;38420;53.150;6.370;2022-10-13T13:10:25;47.65;;;32.97;;
52508;SDS011;38420;53.150;6.370;2022-10-13T13:12:51;42.45;;;28.73;;
52508;SDS011;38420;53.150;6.370;2022-10-13T13:15:34;40.38;;;26.10;;
52508;SDS011;38420;53.150;6.370;2022-10-13T13:20:46;36.05;;;26.05;;
52508;SDS011;38420;53.150;6.370;2022-10-13T13:23:11;37.35;;;26.60;;
52508;SDS011;38420;53.150;6.370;2022-10-13T13:25:37;36.22;;;25.88;;
52508;SDS011;38420;53.150;6.370;2022-10-13T13:28:03;40.58;;;26.90;;
52508;SDS011;38420;53.150;6.370;2022-10-13T13:30:33;40.53;;;25.98;;
52508;SDS011;38420;53.150;6.370;2022-10-13T13:32:59;38.38;;;27.13;;
52508;SDS011;38420;53.150;6.370;2022-10-13T13:35:25;42.17;;;27.60;;
52508;SDS011;38420;53.150;6.370;2022-10-13T13:37:50;37.92;;;26.02;;
52508;SDS011;38420;53.150;6.370;2022-10-13T13:40:18;42.05;;;27.85;;
52508;SDS011;38420;53.150;6.370;2022-10-13T13:42:48;42.00;;;27.52;;
52508;SDS011;38420;53.150;6.370;2022-10-13T13:45:15;38.72;;;26.55;;
52508;SDS011;38420;53.150;6.370;2022-10-13T13:47:42;37.60;;;24.77;;
52508;SDS011;38420;53.150;6.370;2022-10-13T13:50:24;36.53;;;23.83;;
52508;SDS011;38420;53.150;6.370;2022-10-13T13:52:52;35.97;;;23.55;;
52508;SDS011;38420;53.150;6.370;2022-10-13T13:55:17;40.78;;;23.92;;
52508;SDS011;38420;53.150;6.370;2022-10-13T13:57:43;35.75;;;24.60;;
52508;SDS011;38420;53.150;6.370;2022-10-13T14:00:10;33.92;;;22.75;;
52508;SDS011;38420;53.150;6.370;2022-10-13T14:02:37;35.05;;;24.38;;
52508;SDS011;38420;53.150;6.370;2022-10-13T14:05:03;36.28;;;23.00;;
52508;SDS011;38420;53.150;6.370;2022-10-13T14:07:29;35.42;;;23.77;;
52508;SDS011;38420;53.150;6.370;2022-10-13T14:09:55;33.25;;;23.02;;
52508;SDS011;38420;53.150;6.370;2022-10-13T14:12:20;35.22;;;20.65;;
52508;SDS011;38420;53.150;6.370;2022-10-13T14:14:46;35.85;;;22.83;;
52508;SDS011;38420;53.150;6.370;2022-10-13T14:17:12;35.03;;;22.83;;
52508;SDS011;38420;53.150;6.370;2022-10-13T14:19:37;34.55;;;22.58;;
52508;SDS011;38420;53.150;6.370;2022-10-13T14:22:05;34.53;;;22.98;;
52508;SDS011;38420;53.150;6.370;2022-10-13T14:24:30;37.22;;;23.27;;
52508;SDS011;38420;53.150;6.370;2022-10-13T14:26:56;33.45;;;23.77;;
52508;SDS011;38420;53.150;6.370;2022-10-13T14:29:22;39.30;;;30.02;;
52508;SDS011;38420;53.150;6.370;2022-10-13T14:31:48;30.80;;;22.27;;
52508;SDS011;38420;53.150;6.370;2022-10-13T14:34:14;33.90;;;22.75;;
52508;SDS011;38420;53.150;6.370;2022-10-13T14:36:39;33.03;;;22.15;;
52508;SDS011;38420;53.150;6.370;2022-10-13T14:39:05;34.65;;;22.65;;
52508;SDS011;38420;53.150;6.370;2022-10-13T14:41:31;35.25;;;23.67;;
52508;SDS011;38420;53.150;6.370;2022-10-13T14:43:56;32.00;;;22.27;;
52508;SDS011;38420;53.150;6.370;2022-10-13T14:46:22;32.50;;;21.80;;
52508;SDS011;38420;53.150;6.370;2022-10-13T14:48:48;35.25;;;23.08;;
52508;SDS011;38420;53.150;6.370;2022-10-13T14:51:14;30.92;;;21.02;;
52508;SDS011;38420;53.150;6.370;2022-10-13T14:53:41;33.90;;;24.15;;
52508;SDS011;38420;53.150;6.370;2022-10-13T14:56:41;31.50;;;22.58;;
52508;SDS011;38420;53.150;6.370;2022-10-13T14:59:01;30.15;;;20.80;;
52508;SDS011;38420;53.150;6.370;2022-10-13T15:01:28;29.10;;;20.02;;
52508;SDS011;38420;53.150;6.370;2022-10-13T15:03:54;32.42;;;21.65;;
52508;SDS011;38420;53.150;6.370;2022-10-13T15:06:21;32.83;;;22.33;;
52508;SDS011;38420;53.150;6.370;2022-10-13T15:08:48;30.60;;;20.88;;
52508;SDS011;38420;53.150;6.370;2022-10-13T15:11:15;32.33;;;20.73;;
52508;SDS011;38420;53.150;6.370;2022-10-13T15:13:42;30.83;;;21.17;;
52508;SDS011;38420;53.150;6.370;2022-10-13T15:16:15;32.10;;;21.50;;
52508;SDS011;38420;53.150;6.370;2022-10-13T15:18:45;24.88;;;17.83;;
52508;SDS011;38420;53.150;6.370;2022-10-13T15:21:11;29.85;;;19.38;;
52508;SDS011;38420;53.150;6.370;2022-10-13T15:23:37;34.55;;;20.65;;
52508;SDS011;38420;53.150;6.370;2022-10-13T15:26:03;28.33;;;18.45;;
52508;SDS011;38420;53.150;6.370;2022-10-13T15:28:33;26.42;;;18.80;;
52508;SDS011;38420;53.150;6.370;2022-10-13T15:31:00;26.83;;;18.73;;
52508;SDS011;38420;53.150;6.370;2022-10-13T15:33:25;88.95;;;45.85;;
52508;SDS011;38420;53.150;6.370;2022-10-13T15:35:51;43.75;;;26.75;;
52508;SDS011;38420;53.150;6.370;2022-10-13T15:38:18;28.63;;;19.00;;
52508;SDS011;38420;53.150;6.370;2022-10-13T15:40:45;27.70;;;18.98;;
52508;SDS011;38420;53.150;6.370;2022-10-13T15:43:11;25.13;;;18.92;;
52508;SDS011;38420;53.150;6.370;2022-10-13T15:45:37;27.50;;;18.20;;
52508;SDS011;38420;53.150;6.370;2022-10-13T15:48:07;27.88;;;18.30;;
52508;SDS011;38420;53.150;6.370;2022-10-13T15:50:35;27.42;;;19.38;;
52508;SDS011;38420;53.150;6.370;2022-10-13T15:53:07;28.33;;;18.33;;
52508;SDS011;38420;53.150;6.370;2022-10-13T15:55:32;27.70;;;18.38;;
52508;SDS011;38420;53.150;6.370;2022-10-13T15:57:58;30.10;;;18.30;;
52508;SDS011;38420;53.150;6.370;2022-10-13T16:00:23;28.83;;;18.92;;
52508;SDS011;38420;53.150;6.370;2022-10-13T16:02:49;26.50;;;18.75;;
52508;SDS011;38420;53.150;6.370;2022-10-13T16:05:16;29.30;;;19.38;;
52508;SDS011;38420;53.150;6.370;2022-10-13T16:07:42;25.17;;;18.88;;
52508;SDS011;38420;53.150;6.370;2022-10-13T16:10:09;25.00;;;17.77;;
52508;SDS011;38420;53.150;6.370;2022-10-13T16:12:36;27.17;;;18.48;;
52508;SDS011;38420;53.150;6.370;2022-10-13T16:15:03;26.60;;;18.48;;
52508;SDS011;38420;53.150;6.370;2022-10-13T16:17:29;27.13;;;18.58;;
52508;SDS011;38420;53.150;6.370;2022-10-13T16:19:55;24.08;;;17.88;;
52508;SDS011;38420;53.150;6.370;2022-10-13T16:22:21;25.13;;;18.13;;
52508;SDS011;38420;53.150;6.370;2022-10-13T16:24:46;30.33;;;19.17;;
52508;SDS011;38420;53.150;6.370;2022-10-13T16:27:12;27.08;;;19.35;;
52508;SDS011;38420;53.150;6.370;2022-10-13T16:29:37;31.13;;;19.50;;
52508;SDS011;38420;53.150;6.370;2022-10-13T16:32:03;31.55;;;20.27;;
52508;SDS011;38420;53.150;6.370;2022-10-13T16:34:29;27.17;;;19.67;;
52508;SDS011;38420;53.150;6.370;2022-10-13T16:36:54;27.35;;;19.75;;